Time;durP1;ratioP1;P1;durP2;ratioP2;P2;SDS_P1;SDS_P2;PMS_P1;PMS_P2;Temp;Humidity;BMP_temperature;BMP_pressure;BME280_temperature;BME280_humidity;BME280_pressure;Samples;Min_cycle;Max_cycle;Signal;HPM_P1;HPM_P2
2022/12/25 00:01:33;;;;;;;;;;;21.20;38.80;;;;;;482802;246;2019;-43
2022/12/25 00:03:35;;;;;;;;;;;21.10;38.80;;;;;;482787;246;2248;-43
2022/12/25 00:05:37;;;;;;;;;;;21.20;38.90;;;;;;482829;246;2255;-44
2022/12/25 00:07:38;;;;;;;;;;;21.20;38.70;;;;;;482800;246;2230;-43
2022/12/25 00:09:40;;;;;;;;;;;21.20;38.80;;;;;;482820;246;1864;-44
2022/12/25 00:11:44;;;;;;;;;;;21.20;38.80;;;;;;482865;246;1890;-43
2022/12/25 00:13:46;;;;;;;;;;;21.20;38.80;;;;;;483008;246;1901;-41
2022/12/25 00:15:47;;;;;;;;;;;21.10;38.80;;;;;;482521;247;1905;-43
2022/12/25 00:17:49;;;;;;;;;;;21.20;38.80;;;;;;482804;246;3136;-43
2022/12/25 00:19:50;;;;;;;;;;;21.20;38.80;;;;;;482799;246;1996;-44
2022/12/25 00:21:52;;;;;;;;;;;21.20;38.70;;;;;;482853;246;2013;-43
2022/12/25 00:23:54;;;;;;;;;;;21.20;38.80;;;;;;482812;246;2157;-40
2022/12/25 00:25:56;;;;;;;;;;;21.20;38.80;;;;;;482825;247;2350;-40
2022/12/25 00:27:58;;;;;;;;;;;21.20;38.80;;;;;;482914;246;2072;-43
2022/12/25 00:29:59;;;;;;;;;;;21.20;38.80;;;;;;482912;246;1919;-43
2022/12/25 00:32:00;;;;;;;;;;;21.20;38.70;;;;;;482825;246;2175;-43
2022/12/25 00:34:02;;;;;;;;;;;21.20;38.70;;;;;;482857;246;2007;-40
2022/12/25 00:36:05;;;;;;;;;;;21.40;38.70;;;;;;482810;246;2348;-43
2022/12/25 00:38:04;;;;;;;;;;;21.60;38.20;;;;;;482656;246;2233;-40
2022/12/25 00:40:06;;;;;;;;;;;21.80;37.80;;;;;;482888;246;2070;-44
2022/12/25 00:42:19;;;;;;;;;;;21.90;37.50;;;;;;482845;246;2106;-44
2022/12/25 00:44:21;;;;;;;;;;;22.00;37.20;;;;;;482873;246;2233;-43
2022/12/25 00:46:23;;;;;;;;;;;22.20;37.00;;;;;;482948;246;2278;-43
2022/12/25 00:48:25;;;;;;;;;;;22.30;36.90;;;;;;482900;246;2876;-40
2022/12/25 00:50:27;;;;;;;;;;;22.30;36.70;;;;;;482918;246;2343;-44
2022/12/25 00:52:29;;;;;;;;;;;22.40;36.60;;;;;;482848;246;2131;-41
2022/12/25 00:54:30;;;;;;;;;;;22.50;36.50;;;;;;482900;246;2333;-43
2022/12/25 00:56:31;;;;;;;;;;;22.60;36.40;;;;;;482779;246;1670;-41
2022/12/25 00:58:36;;;;;;;;;;;22.60;36.30;;;;;;482811;246;2339;-44
2022/12/25 01:00:37;;;;;;;;;;;22.60;36.20;;;;;;482747;246;2169;-44
2022/12/25 01:02:39;;;;;;;;;;;22.70;36.10;;;;;;482770;246;1698;-44
2022/12/25 01:04:41;;;;;;;;;;;22.80;36.10;;;;;;482764;246;2169;-43
2022/12/25 01:06:42;;;;;;;;;;;22.80;36.00;;;;;;482598;246;2213;-40
2022/12/25 01:10:21;;;;;;;;;;;22.80;35.90;;;;;;482818;246;1885;-43
2022/12/25 01:10:45;;;;;;;;;;;22.90;35.90;;;;;;481126;247;1965;-41
2022/12/25 01:12:47;;;;;;;;;;;22.90;35.80;;;;;;482642;246;2468;-43
2022/12/25 01:14:48;;;;;;;;;;;23.00;35.80;;;;;;482753;246;2041;-42
2022/12/25 01:16:49;;;;;;;;;;;23.00;35.70;;;;;;482620;246;1995;-44
2022/12/25 01:18:51;;;;;;;;;;;23.00;35.70;;;;;;482784;246;2376;-43
2022/12/25 01:20:52;;;;;;;;;;;23.10;35.70;;;;;;482779;246;2054;-43
2022/12/25 01:22:54;;;;;;;;;;;23.10;35.60;;;;;;482804;246;2340;-43
2022/12/25 01:24:56;;;;;;;;;;;23.10;35.60;;;;;;482754;246;2192;-43
2022/12/25 01:26:57;;;;;;;;;;;23.10;35.50;;;;;;482871;246;2087;-44
2022/12/25 01:28:59;;;;;;;;;;;23.10;35.50;;;;;;482907;246;2201;-41
2022/12/25 01:31:00;;;;;;;;;;;23.10;35.50;;;;;;482775;246;1932;-40
2022/12/25 01:33:02;;;;;;;;;;;23.20;35.50;;;;;;482827;246;1734;-41
2022/12/25 01:35:03;;;;;;;;;;;23.20;35.40;;;;;;482757;246;2055;-43
2022/12/25 01:37:04;;;;;;;;;;;23.20;35.40;;;;;;482803;246;2096;-43
2022/12/25 01:39:05;;;;;;;;;;;23.20;35.30;;;;;;482748;246;2481;-42
2022/12/25 01:41:07;;;;;;;;;;;23.30;35.40;;;;;;482931;246;2455;-40
2022/12/25 01:43:09;;;;;;;;;;;23.30;35.30;;;;;;482846;246;2100;-40
2022/12/25 01:45:10;;;;;;;;;;;23.30;35.30;;;;;;482872;246;2230;-40
2022/12/25 01:47:12;;;;;;;;;;;23.30;35.30;;;;;;482783;246;2339;-42
2022/12/25 01:49:13;;;;;;;;;;;23.30;35.20;;;;;;482789;246;2573;-43
2022/12/25 01:51:14;;;;;;;;;;;23.30;35.20;;;;;;482873;246;2558;-40
2022/12/25 01:53:16;;;;;;;;;;;23.40;35.20;;;;;;482789;246;2028;-40
2022/12/25 01:55:17;;;;;;;;;;;23.40;35.20;;;;;;482911;246;2309;-44
2022/12/25 01:57:19;;;;;;;;;;;23.40;35.20;;;;;;482801;246;2416;-44
2022/12/25 01:59:20;;;;;;;;;;;23.40;35.20;;;;;;482790;246;1830;-43
2022/12/25 02:01:22;;;;;;;;;;;23.40;35.20;;;;;;482788;246;2319;-43
2022/12/25 02:03:23;;;;;;;;;;;23.40;35.10;;;;;;482831;246;1934;-40
2022/12/25 02:05:24;;;;;;;;;;;23.50;35.20;;;;;;482759;246;2335;-43
2022/12/25 02:07:26;;;;;;;;;;;23.50;35.10;;;;;;482814;246;1897;-43
2022/12/25 02:09:28;;;;;;;;;;;23.50;35.10;;;;;;482760;246;3834;-43
2022/12/25 02:13:59;;;;;;;;;;;23.50;35.10;;;;;;476207;247;3203;-43
2022/12/25 02:16:00;;;;;;;;;;;23.50;35.10;;;;;;482799;246;3174;-43
2022/12/25 02:18:01;;;;;;;;;;;23.40;35.20;;;;;;482917;246;2357;-43
2022/12/25 02:20:03;;;;;;;;;;;23.10;35.50;;;;;;482819;246;1865;-43
2022/12/25 02:22:04;;;;;;;;;;;23.00;35.90;;;;;;482920;246;2046;-43
2022/12/25 02:24:09;;;;;;;;;;;22.80;36.10;;;;;;482847;246;2705;-41
2022/12/25 02:26:11;;;;;;;;;;;22.70;36.40;;;;;;482827;246;2047;-43
2022/12/25 02:28:12;;;;;;;;;;;22.60;36.60;;;;;;482963;246;2153;-43
2022/12/25 02:30:14;;;;;;;;;;;22.60;36.70;;;;;;482836;246;1970;-43
2022/12/25 02:32:15;;;;;;;;;;;22.50;36.70;;;;;;482793;246;1748;-44
2022/12/25 02:34:16;;;;;;;;;;;22.50;36.80;;;;;;482851;246;1960;-43
2022/12/25 02:36:18;;;;;;;;;;;22.50;36.90;;;;;;482839;246;2128;-40
2022/12/25 02:38:19;;;;;;;;;;;22.40;37.00;;;;;;482877;246;2781;-41
2022/12/25 02:40:20;;;;;;;;;;;22.30;37.20;;;;;;482778;246;1627;-43
2022/12/25 02:42:22;;;;;;;;;;;22.30;37.20;;;;;;482676;246;1910;-40
2022/12/25 03:07:54;;;;;;;;;;;22.10;37.50;;;;;;473693;251;2086;-42
2022/12/25 03:12:15;;;;;;;;;;;22.10;37.60;;;;;;473541;250;2785;-43
2022/12/25 03:18:56;;;;;;;;;;;21.90;37.80;;;;;;473564;251;2279;-40
2022/12/25 03:28:11;;;;;;;;;;;21.80;38.10;;;;;;471695;249;2347;-43
2022/12/25 03:32:31;;;;;;;;;;;21.70;38.20;;;;;;477531;249;2442;-43
2022/12/25 03:36:54;;;;;;;;;;;21.70;38.30;;;;;;477477;249;1921;-43
2022/12/25 03:39:14;;;;;;;;;;;21.70;38.30;;;;;;477454;249;2151;-43
2022/12/25 04:37:07;;;;;;;;;;;21.40;38.60;;;;;;500009;238;1878;-41
2022/12/25 04:39:09;;;;;;;;;;;21.40;38.60;;;;;;500052;237;3341;-43
2022/12/25 04:41:10;;;;;;;;;;;21.40;38.60;;;;;;500084;237;1963;-43
2022/12/25 04:43:11;;;;;;;;;;;21.40;38.60;;;;;;500163;237;2581;-43
2022/12/25 04:45:13;;;;;;;;;;;21.40;38.60;;;;;;500177;237;2196;-43
2022/12/25 04:47:15;;;;;;;;;;;21.50;38.70;;;;;;500084;237;2171;-43
2022/12/25 04:49:17;;;;;;;;;;;21.40;38.70;;;;;;500001;237;2001;-43
2022/12/25 04:51:18;;;;;;;;;;;21.30;38.60;;;;;;500081;237;2443;-43
2022/12/25 04:53:21;;;;;;;;;;;21.30;38.70;;;;;;500099;237;1727;-41
2022/12/25 04:55:22;;;;;;;;;;;21.30;38.60;;;;;;499929;237;1863;-44
2022/12/25 04:57:24;;;;;;;;;;;21.40;38.70;;;;;;499995;237;1873;-43
2022/12/25 04:59:25;;;;;;;;;;;21.40;38.60;;;;;;499964;237;2055;-43
2022/12/25 05:01:27;;;;;;;;;;;21.40;38.70;;;;;;500115;237;2567;-44
2022/12/25 05:03:29;;;;;;;;;;;21.30;38.60;;;;;;500006;237;2332;-44
2022/12/25 05:05:30;;;;;;;;;;;21.40;38.60;;;;;;499960;237;2566;-41
2022/12/25 05:07:32;;;;;;;;;;;21.30;38.60;;;;;;499985;237;2385;-40
2022/12/25 05:09:33;;;;;;;;;;;21.40;38.70;;;;;;499995;237;2314;-41
2022/12/25 05:11:34;;;;;;;;;;;21.40;38.70;;;;;;500036;237;1701;-44
2022/12/25 05:13:36;;;;;;;;;;;21.40;38.60;;;;;;499943;237;1867;-43
2022/12/25 05:15:38;;;;;;;;;;;21.40;38.60;;;;;;499942;237;1944;-43
2022/12/25 05:17:39;;;;;;;;;;;21.40;38.70;;;;;;500022;237;1964;-43
2022/12/25 05:19:41;;;;;;;;;;;21.40;38.70;;;;;;500124;237;2812;-42
2022/12/25 05:21:42;;;;;;;;;;;21.30;38.80;;;;;;499865;237;2304;-43
2022/12/25 05:23:47;;;;;;;;;;;21.30;38.70;;;;;;500053;237;1970;-41
2022/12/25 05:25:49;;;;;;;;;;;21.30;38.70;;;;;;499910;237;2196;-43
2022/12/25 05:27:51;;;;;;;;;;;21.30;38.80;;;;;;500052;237;1830;-43
2022/12/25 05:29:52;;;;;;;;;;;21.30;38.70;;;;;;499967;237;2453;-43
2022/12/25 05:31:54;;;;;;;;;;;21.30;38.70;;;;;;499844;237;2687;-40
2022/12/25 05:33:55;;;;;;;;;;;21.30;38.80;;;;;;500013;237;1899;-43
2022/12/25 05:35:57;;;;;;;;;;;21.30;38.80;;;;;;500001;237;1725;-44
2022/12/25 05:37:58;;;;;;;;;;;21.30;38.80;;;;;;500018;237;1944;-43
2022/12/25 05:40:00;;;;;;;;;;;21.30;38.80;;;;;;500007;237;2042;-44
2022/12/25 05:42:02;;;;;;;;;;;21.30;38.80;;;;;;499989;237;1715;-43
2022/12/25 05:44:03;;;;;;;;;;;21.30;38.80;;;;;;500150;237;2258;-43
2022/12/25 05:46:05;;;;;;;;;;;21.30;38.80;;;;;;500054;237;2148;-44
2022/12/25 05:48:06;;;;;;;;;;;21.40;38.70;;;;;;499950;237;3658;-43
2022/12/25 05:50:07;;;;;;;;;;;21.60;38.30;;;;;;500071;237;2387;-43
2022/12/25 05:52:09;;;;;;;;;;;21.80;37.90;;;;;;499943;237;2579;-41
2022/12/25 05:54:10;;;;;;;;;;;22.00;37.60;;;;;;500038;237;2249;-44
2022/12/25 05:56:12;;;;;;;;;;;22.10;37.30;;;;;;499979;237;2318;-44
2022/12/25 05:58:13;;;;;;;;;;;22.20;37.10;;;;;;500041;237;1941;-40
2022/12/25 06:00:15;;;;;;;;;;;22.30;36.90;;;;;;499992;237;2163;-44
2022/12/25 06:02:16;;;;;;;;;;;22.40;36.80;;;;;;499935;237;1954;-43
2022/12/25 06:04:17;;;;;;;;;;;22.50;36.70;;;;;;499978;237;2158;-42
2022/12/25 06:06:19;;;;;;;;;;;22.50;36.50;;;;;;499964;237;2234;-43
2022/12/25 06:08:21;;;;;;;;;;;22.60;36.50;;;;;;499969;237;2148;-44
2022/12/25 06:10:22;;;;;;;;;;;22.60;36.30;;;;;;499923;237;2237;-44
2022/12/25 06:12:23;;;;;;;;;;;22.70;36.30;;;;;;500125;237;2188;-44
2022/12/25 06:14:25;;;;;;;;;;;22.70;36.20;;;;;;500011;237;2133;-44
2022/12/25 06:16:26;;;;;;;;;;;22.80;36.10;;;;;;499888;237;2257;-44
2022/12/25 06:18:28;;;;;;;;;;;22.80;36.00;;;;;;499534;238;2043;-40
2022/12/25 06:20:29;;;;;;;;;;;22.90;36.00;;;;;;499969;237;2530;-43
2022/12/25 06:22:30;;;;;;;;;;;22.90;35.90;;;;;;499981;237;2245;-43
2022/12/25 06:24:32;;;;;;;;;;;23.00;35.90;;;;;;499910;237;1830;-44
2022/12/25 06:26:33;;;;;;;;;;;23.00;35.80;;;;;;499961;237;2148;-43
2022/12/25 06:28:34;;;;;;;;;;;23.00;35.80;;;;;;499936;237;2167;-43
2022/12/25 06:30:36;;;;;;;;;;;23.00;35.70;;;;;;499937;238;2175;-43
2022/12/25 06:32:37;;;;;;;;;;;23.10;35.70;;;;;;499965;237;2291;-43
2022/12/25 06:34:38;;;;;;;;;;;23.10;35.60;;;;;;500087;237;2237;-43
2022/12/25 06:36:40;;;;;;;;;;;23.10;35.60;;;;;;499880;237;2153;-43
2022/12/25 06:38:41;;;;;;;;;;;23.20;35.60;;;;;;499976;237;2104;-41
2022/12/25 06:40:42;;;;;;;;;;;23.20;35.50;;;;;;500101;237;2366;-43
2022/12/25 06:42:44;;;;;;;;;;;23.20;35.50;;;;;;499920;237;2375;-43
2022/12/25 06:44:45;;;;;;;;;;;23.20;35.50;;;;;;499981;237;2477;-43
2022/12/25 06:46:46;;;;;;;;;;;23.30;35.50;;;;;;499821;237;2227;-44
2022/12/25 06:48:48;;;;;;;;;;;23.30;35.50;;;;;;499974;237;2484;-43
2022/12/25 06:50:49;;;;;;;;;;;23.30;35.50;;;;;;499892;237;2207;-44
2022/12/25 06:52:51;;;;;;;;;;;23.30;35.40;;;;;;500021;237;2451;-43
2022/12/25 06:54:53;;;;;;;;;;;23.30;35.40;;;;;;500015;237;1858;-43
2022/12/25 06:56:54;;;;;;;;;;;23.40;35.40;;;;;;499898;237;2016;-40
2022/12/25 06:58:55;;;;;;;;;;;23.30;35.30;;;;;;500066;237;2393;-44
2022/12/25 07:00:57;;;;;;;;;;;23.40;35.40;;;;;;499997;237;1890;-42
2022/12/25 07:02:58;;;;;;;;;;;23.40;35.30;;;;;;499929;237;2157;-44
2022/12/25 07:05:00;;;;;;;;;;;23.40;35.30;;;;;;499995;237;2012;-44
2022/12/25 07:07:01;;;;;;;;;;;23.40;35.30;;;;;;499999;237;2172;-43
2022/12/25 07:09:03;;;;;;;;;;;23.40;35.30;;;;;;500013;237;2113;-40
2022/12/25 07:11:04;;;;;;;;;;;23.30;35.40;;;;;;500051;237;1887;-40
2022/12/25 07:13:06;;;;;;;;;;;23.10;35.70;;;;;;500055;237;1846;-40
2022/12/25 07:15:07;;;;;;;;;;;22.90;36.10;;;;;;499998;237;2413;-42
2022/12/25 07:17:09;;;;;;;;;;;22.60;36.40;;;;;;499984;237;1796;-44
2022/12/25 07:19:10;;;;;;;;;;;22.50;36.70;;;;;;499870;237;1880;-43
2022/12/25 07:21:11;;;;;;;;;;;22.40;37.10;;;;;;499937;237;1878;-41
2022/12/25 07:23:13;;;;;;;;;;;22.30;37.30;;;;;;499912;237;2276;-43
2022/12/25 07:25:14;;;;;;;;;;;22.20;37.40;;;;;;499947;237;2147;-43
2022/12/25 07:27:16;;;;;;;;;;;22.10;37.50;;;;;;499916;237;3257;-42
2022/12/25 07:29:18;;;;;;;;;;;22.00;37.70;;;;;;500034;237;2071;-43
2022/12/25 07:31:19;;;;;;;;;;;22.00;37.80;;;;;;499906;237;2308;-44
2022/12/25 07:33:20;;;;;;;;;;;21.90;37.80;;;;;;499876;237;2367;-43
2022/12/25 07:35:22;;;;;;;;;;;21.90;38.00;;;;;;499984;237;1980;-43
2022/12/25 07:37:23;;;;;;;;;;;21.90;37.90;;;;;;499972;237;1873;-42
2022/12/25 07:39:24;;;;;;;;;;;21.90;38.00;;;;;;499966;237;1898;-43
2022/12/25 07:41:26;;;;;;;;;;;21.90;38.00;;;;;;499873;237;2281;-43
2022/12/25 07:43:28;;;;;;;;;;;21.90;38.00;;;;;;499942;237;2291;-44
2022/12/25 07:45:29;;;;;;;;;;;21.80;38.10;;;;;;499993;237;2179;-43
2022/12/25 07:47:31;;;;;;;;;;;21.90;38.10;;;;;;499818;237;1830;-41
2022/12/25 07:49:32;;;;;;;;;;;21.80;38.10;;;;;;499997;237;1989;-40
2022/12/25 07:51:34;;;;;;;;;;;21.70;38.20;;;;;;499820;237;2214;-40
2022/12/25 07:53:36;;;;;;;;;;;21.70;38.40;;;;;;499980;237;1948;-43
2022/12/25 07:55:37;;;;;;;;;;;21.70;38.40;;;;;;499930;237;2219;-40
2022/12/25 07:57:39;;;;;;;;;;;21.70;38.40;;;;;;499913;237;2676;-44
2022/12/25 07:59:40;;;;;;;;;;;21.70;38.50;;;;;;499925;237;1969;-43
2022/12/25 08:01:42;;;;;;;;;;;21.70;38.40;;;;;;499890;237;1720;-43
2022/12/25 08:03:43;;;;;;;;;;;21.60;38.50;;;;;;499983;237;1847;-43
2022/12/25 08:05:45;;;;;;;;;;;21.60;38.50;;;;;;499930;237;2192;-43
2022/12/25 08:07:46;;;;;;;;;;;21.60;38.50;;;;;;499972;237;1953;-43
2022/12/25 08:09:48;;;;;;;;;;;21.60;38.50;;;;;;499988;237;1898;-40
2022/12/25 08:11:49;;;;;;;;;;;21.60;38.60;;;;;;499949;237;2130;-43
2022/12/25 08:13:50;;;;;;;;;;;21.60;38.70;;;;;;499987;237;2085;-42
2022/12/25 08:15:52;;;;;;;;;;;21.50;38.60;;;;;;499949;237;2347;-40
2022/12/25 08:17:54;;;;;;;;;;;21.50;38.70;;;;;;500002;237;2155;-43
2022/12/25 08:19:55;;;;;;;;;;;21.50;38.70;;;;;;500073;237;2362;-44
2022/12/25 08:21:56;;;;;;;;;;;21.50;38.60;;;;;;499721;238;2128;-44
2022/12/25 08:23:58;;;;;;;;;;;21.50;38.70;;;;;;499948;237;2207;-43
2022/12/25 08:25:59;;;;;;;;;;;21.50;38.70;;;;;;499981;237;2157;-44
2022/12/25 08:28:01;;;;;;;;;;;21.40;38.70;;;;;;499978;237;1926;-43
2022/12/25 08:30:02;;;;;;;;;;;21.50;38.70;;;;;;499831;238;1971;-43
2022/12/25 08:32:06;;;;;;;;;;;21.50;38.70;;;;;;499979;237;2598;-43
2022/12/25 08:34:08;;;;;;;;;;;21.50;38.70;;;;;;499855;237;2954;-43
2022/12/25 08:36:10;;;;;;;;;;;21.50;38.70;;;;;;499908;237;1880;-44
2022/12/25 08:38:12;;;;;;;;;;;21.40;38.60;;;;;;500053;237;2152;-40
2022/12/25 08:40:14;;;;;;;;;;;21.40;38.70;;;;;;499940;237;1972;-44
2022/12/25 08:42:15;;;;;;;;;;;21.40;38.70;;;;;;499811;237;2157;-43
2022/12/25 08:44:19;;;;;;;;;;;21.40;38.70;;;;;;499873;237;1906;-41
2022/12/25 08:46:21;;;;;;;;;;;21.40;38.70;;;;;;499839;237;2514;-43
2022/12/25 08:48:22;;;;;;;;;;;21.30;38.80;;;;;;499957;237;2252;-42
2022/12/25 08:50:24;;;;;;;;;;;21.40;38.90;;;;;;499926;237;1887;-43
2022/12/25 08:52:25;;;;;;;;;;;21.40;38.80;;;;;;499871;237;2315;-42
2022/12/25 08:54:27;;;;;;;;;;;21.40;38.80;;;;;;499972;237;2355;-41
2022/12/25 08:56:28;;;;;;;;;;;21.30;38.70;;;;;;499867;237;2220;-43
2022/12/25 08:58:30;;;;;;;;;;;21.40;38.80;;;;;;499930;237;1974;-41
2022/12/25 09:00:32;;;;;;;;;;;21.40;38.80;;;;;;499951;237;1948;-43
2022/12/25 09:02:34;;;;;;;;;;;21.30;38.80;;;;;;500020;237;3151;-43
2022/12/25 09:04:36;;;;;;;;;;;21.40;38.90;;;;;;499999;237;1987;-42
2022/12/25 09:06:38;;;;;;;;;;;21.30;38.80;;;;;;499971;237;2192;-41
2022/12/25 09:08:39;;;;;;;;;;;21.30;38.80;;;;;;500000;237;2394;-43
2022/12/25 09:10:41;;;;;;;;;;;21.30;38.80;;;;;;500005;237;2271;-42
2022/12/25 09:12:43;;;;;;;;;;;21.30;38.80;;;;;;500001;237;1945;-44
2022/12/25 09:14:44;;;;;;;;;;;21.40;38.90;;;;;;500111;237;1996;-42
2022/12/25 09:16:46;;;;;;;;;;;21.30;38.80;;;;;;499905;238;2722;-44
2022/12/25 09:18:47;;;;;;;;;;;21.30;38.90;;;;;;499997;237;1908;-43
2022/12/25 09:20:48;;;;;;;;;;;21.30;39.00;;;;;;499943;237;2226;-43
2022/12/25 09:22:50;;;;;;;;;;;21.30;38.90;;;;;;500002;237;2108;-43
2022/12/25 09:24:51;;;;;;;;;;;21.30;38.90;;;;;;500081;237;2124;-43
2022/12/25 09:26:52;;;;;;;;;;;21.30;38.90;;;;;;500083;237;2180;-42
2022/12/25 09:28:54;;;;;;;;;;;21.30;38.90;;;;;;499759;238;2512;-43
2022/12/25 09:30:55;;;;;;;;;;;21.30;38.90;;;;;;499944;238;2407;-43
2022/12/25 09:32:57;;;;;;;;;;;21.30;38.80;;;;;;499954;237;2149;-41
2022/12/25 09:34:59;;;;;;;;;;;21.40;38.90;;;;;;499927;238;2354;-43
2022/12/25 09:37:00;;;;;;;;;;;21.30;38.90;;;;;;500103;237;2310;-43
2022/12/25 09:39:02;;;;;;;;;;;21.30;38.90;;;;;;500025;237;2686;-43
2022/12/25 09:41:03;;;;;;;;;;;21.30;38.90;;;;;;499937;237;1866;-40
2022/12/25 09:43:06;;;;;;;;;;;21.30;38.90;;;;;;500058;237;1705;-43
2022/12/25 09:45:08;;;;;;;;;;;21.30;38.90;;;;;;499837;237;2370;-43
2022/12/25 09:47:09;;;;;;;;;;;21.30;38.90;;;;;;499937;237;2149;-43
2022/12/25 09:49:11;;;;;;;;;;;21.30;38.90;;;;;;499998;237;2011;-43
2022/12/25 09:51:12;;;;;;;;;;;21.30;39.00;;;;;;499802;237;2781;-43
2022/12/25 09:53:14;;;;;;;;;;;21.20;39.00;;;;;;499938;237;1863;-43
2022/12/25 09:55:17;;;;;;;;;;;21.20;38.90;;;;;;500104;237;2155;-43
2022/12/25 09:57:17;;;;;;;;;;;21.20;39.00;;;;;;499591;238;2534;-43
2022/12/25 09:59:18;;;;;;;;;;;21.30;39.00;;;;;;499966;237;1669;-42
2022/12/25 10:01:20;;;;;;;;;;;21.20;39.10;;;;;;499926;237;3025;-43
2022/12/25 10:03:22;;;;;;;;;;;21.20;39.10;;;;;;499899;237;2474;-43
2022/12/25 10:05:24;;;;;;;;;;;21.20;39.10;;;;;;500035;237;1899;-43
2022/12/25 10:07:26;;;;;;;;;;;21.20;39.10;;;;;;499983;237;2208;-43
2022/12/25 10:09:27;;;;;;;;;;;21.20;39.10;;;;;;499959;237;2364;-43
2022/12/25 10:11:29;;;;;;;;;;;21.20;39.10;;;;;;499965;237;2059;-43
2022/12/25 10:13:30;;;;;;;;;;;21.20;39.10;;;;;;499956;237;1877;-43
2022/12/25 10:15:32;;;;;;;;;;;21.20;39.00;;;;;;499999;237;2418;-43
2022/12/25 10:17:33;;;;;;;;;;;21.20;39.00;;;;;;500011;237;2170;-43
2022/12/25 10:19:34;;;;;;;;;;;21.30;39.00;;;;;;499914;237;2245;-43
2022/12/25 10:21:36;;;;;;;;;;;21.20;39.00;;;;;;499982;237;2073;-43
2022/12/25 10:23:37;;;;;;;;;;;21.20;39.00;;;;;;500071;237;1987;-43
2022/12/25 10:25:39;;;;;;;;;;;21.20;39.00;;;;;;499939;237;2179;-41
2022/12/25 10:27:40;;;;;;;;;;;21.20;39.00;;;;;;500036;237;2410;-43
2022/12/25 10:29:41;;;;;;;;;;;21.20;39.00;;;;;;500113;237;2105;-44
2022/12/25 10:31:43;;;;;;;;;;;21.20;39.10;;;;;;500015;237;2272;-43
2022/12/25 10:33:44;;;;;;;;;;;21.20;39.10;;;;;;499960;237;1752;-43
2022/12/25 10:35:46;;;;;;;;;;;21.20;39.00;;;;;;500057;237;2481;-40
2022/12/25 10:37:47;;;;;;;;;;;21.30;38.70;;;;;;499998;237;2606;-43
2022/12/25 10:39:50;;;;;;;;;;;21.60;38.50;;;;;;499946;237;1772;-44
2022/12/25 10:41:52;;;;;;;;;;;21.80;38.10;;;;;;499860;237;1933;-42
2022/12/25 10:43:53;;;;;;;;;;;21.90;37.70;;;;;;500002;237;2102;-40
2022/12/25 10:45:54;;;;;;;;;;;22.10;37.50;;;;;;499869;237;2087;-44
2022/12/25 10:47:56;;;;;;;;;;;22.20;37.40;;;;;;500018;237;2172;-43
2022/12/25 10:49:58;;;;;;;;;;;22.30;37.20;;;;;;500084;237;2560;-40
2022/12/25 10:52:00;;;;;;;;;;;22.30;37.00;;;;;;499813;237;1710;-44
2022/12/25 10:54:01;;;;;;;;;;;22.40;36.90;;;;;;499965;237;2218;-44
2022/12/25 10:56:02;;;;;;;;;;;22.50;36.80;;;;;;499934;237;1996;-41
2022/12/25 10:58:04;;;;;;;;;;;22.60;36.70;;;;;;499839;238;2409;-44
2022/12/25 11:00:05;;;;;;;;;;;22.60;36.60;;;;;;499966;237;2135;-41
2022/12/25 11:02:08;;;;;;;;;;;22.60;36.40;;;;;;499971;237;2052;-44
2022/12/25 11:04:10;;;;;;;;;;;22.70;36.40;;;;;;500000;237;1749;-40
2022/12/25 11:06:11;;;;;;;;;;;22.70;36.30;;;;;;499840;237;1722;-44
2022/12/25 11:08:12;;;;;;;;;;;22.80;36.30;;;;;;499922;237;2338;-41
2022/12/25 11:10:14;;;;;;;;;;;22.80;36.20;;;;;;499850;237;2298;-44
2022/12/25 11:12:15;;;;;;;;;;;22.90;36.20;;;;;;500010;237;2751;-42
2022/12/25 11:14:16;;;;;;;;;;;22.90;36.00;;;;;;499893;237;1685;-41
2022/12/25 11:16:17;;;;;;;;;;;23.00;36.10;;;;;;499828;237;2103;-44
2022/12/25 11:18:19;;;;;;;;;;;23.00;36.00;;;;;;499886;237;2564;-41
2022/12/25 11:20:20;;;;;;;;;;;23.00;35.90;;;;;;499844;237;2553;-43
2022/12/25 11:22:21;;;;;;;;;;;23.00;35.90;;;;;;499878;237;2393;-43
2022/12/25 11:24:23;;;;;;;;;;;23.10;35.90;;;;;;499792;237;1952;-44
2022/12/25 11:26:24;;;;;;;;;;;23.10;35.80;;;;;;499896;237;1957;-44
2022/12/25 11:28:26;;;;;;;;;;;23.10;35.80;;;;;;499996;237;2172;-44
2022/12/25 11:30:27;;;;;;;;;;;23.10;35.80;;;;;;499906;237;2079;-44
2022/12/25 11:32:28;;;;;;;;;;;23.10;35.70;;;;;;499876;237;2069;-44
2022/12/25 11:34:30;;;;;;;;;;;23.10;35.70;;;;;;499940;237;2299;-42
2022/12/25 11:36:31;;;;;;;;;;;23.20;35.70;;;;;;500020;237;1832;-40
2022/12/25 11:38:32;;;;;;;;;;;23.20;35.70;;;;;;499935;237;1991;-44
2022/12/25 11:40:34;;;;;;;;;;;23.20;35.70;;;;;;499980;237;2414;-41
2022/12/25 11:42:35;;;;;;;;;;;23.20;35.60;;;;;;499949;237;2161;-44
2022/12/25 11:44:37;;;;;;;;;;;23.30;35.60;;;;;;499931;237;1969;-41
2022/12/25 11:46:38;;;;;;;;;;;23.30;35.60;;;;;;499920;237;2807;-43
2022/12/25 11:48:40;;;;;;;;;;;23.30;35.50;;;;;;499902;237;2145;-44
2022/12/25 11:50:41;;;;;;;;;;;23.30;35.50;;;;;;499916;237;2169;-43
2022/12/25 11:52:43;;;;;;;;;;;23.30;35.50;;;;;;499951;237;1944;-42
2022/12/25 11:54:44;;;;;;;;;;;23.40;35.50;;;;;;499975;237;2140;-40
2022/12/25 11:56:46;;;;;;;;;;;23.40;35.50;;;;;;499931;237;2036;-40
2022/12/25 11:58:47;;;;;;;;;;;23.40;35.50;;;;;;499915;237;2253;-44
2022/12/25 12:00:49;;;;;;;;;;;23.40;35.50;;;;;;499855;237;2343;-44
2022/12/25 12:02:50;;;;;;;;;;;23.40;35.50;;;;;;499997;238;1974;-40
2022/12/25 12:04:51;;;;;;;;;;;23.40;35.40;;;;;;499916;237;2202;-44
2022/12/25 12:06:53;;;;;;;;;;;23.40;35.40;;;;;;499919;237;2239;-41
2022/12/25 12:08:55;;;;;;;;;;;23.40;35.50;;;;;;499990;237;2266;-44
2022/12/25 12:10:56;;;;;;;;;;;23.40;35.50;;;;;;499906;237;2255;-42
2022/12/25 12:12:57;;;;;;;;;;;23.40;35.60;;;;;;499925;237;2134;-41
2022/12/25 12:14:59;;;;;;;;;;;23.20;35.90;;;;;;499997;237;1811;-44
2022/12/25 12:17:00;;;;;;;;;;;22.90;36.30;;;;;;499622;238;2433;-40
2022/12/25 12:19:02;;;;;;;;;;;22.70;36.50;;;;;;499953;237;1888;-44
2022/12/25 12:21:03;;;;;;;;;;;22.50;36.90;;;;;;499941;237;1862;-44
2022/12/25 12:23:05;;;;;;;;;;;22.40;37.20;;;;;;499936;237;1917;-40
2022/12/25 12:25:07;;;;;;;;;;;22.30;37.40;;;;;;499991;237;2092;-44
2022/12/25 12:27:09;;;;;;;;;;;22.20;37.60;;;;;;499943;237;2148;-44
2022/12/25 12:29:10;;;;;;;;;;;22.10;37.70;;;;;;499941;237;1928;-43
2022/12/25 12:31:12;;;;;;;;;;;22.10;37.90;;;;;;499989;237;1827;-43
2022/12/25 12:33:13;;;;;;;;;;;22.00;37.90;;;;;;499436;238;3229;-44
2022/12/25 12:35:14;;;;;;;;;;;22.00;37.90;;;;;;499947;237;2497;-40
2022/12/25 12:37:16;;;;;;;;;;;22.00;38.10;;;;;;499969;237;1806;-40
2022/12/25 12:39:17;;;;;;;;;;;21.90;38.10;;;;;;500072;237;2402;-44
2022/12/25 12:41:21;;;;;;;;;;;21.90;38.20;;;;;;499793;237;1766;-43
2022/12/25 12:43:21;;;;;;;;;;;21.90;38.30;;;;;;499856;238;1782;-42
2022/12/25 12:45:23;;;;;;;;;;;21.80;38.30;;;;;;499917;237;1746;-43
2022/12/25 12:47:24;;;;;;;;;;;21.80;38.40;;;;;;499753;237;3082;-43
2022/12/25 12:49:26;;;;;;;;;;;21.80;38.40;;;;;;499906;237;1950;-43
2022/12/25 12:51:27;;;;;;;;;;;21.70;38.50;;;;;;499797;237;2002;-40
2022/12/25 12:53:29;;;;;;;;;;;21.70;38.60;;;;;;500154;237;1955;-43
2022/12/25 12:55:30;;;;;;;;;;;21.70;38.60;;;;;;500016;237;2782;-44
2022/12/25 12:57:34;;;;;;;;;;;21.70;38.60;;;;;;499798;237;1931;-44
2022/12/25 12:59:34;;;;;;;;;;;21.70;38.60;;;;;;499870;238;1909;-41
2022/12/25 13:01:36;;;;;;;;;;;21.60;38.70;;;;;;499840;237;2201;-43
2022/12/25 13:03:38;;;;;;;;;;;21.60;38.70;;;;;;499920;237;2207;-43
2022/12/25 13:05:40;;;;;;;;;;;21.70;38.70;;;;;;499855;237;2206;-44
2022/12/25 13:07:43;;;;;;;;;;;21.60;38.70;;;;;;499851;237;2184;-43
2022/12/25 13:09:44;;;;;;;;;;;21.60;38.80;;;;;;499929;237;2003;-43
2022/12/25 13:11:46;;;;;;;;;;;21.60;38.70;;;;;;499777;237;2374;-44
2022/12/25 13:13:48;;;;;;;;;;;21.50;38.70;;;;;;499912;237;1801;-43
2022/12/25 13:15:49;;;;;;;;;;;21.50;38.80;;;;;;499967;237;2264;-44
2022/12/25 13:17:51;;;;;;;;;;;21.50;38.70;;;;;;499985;237;2051;-43
2022/12/25 13:19:53;;;;;;;;;;;21.50;38.80;;;;;;500021;237;1894;-43
2022/12/25 13:21:54;;;;;;;;;;;21.50;38.90;;;;;;500002;237;2028;-43
2022/12/25 13:23:55;;;;;;;;;;;21.50;38.90;;;;;;500006;237;2289;-43
2022/12/25 13:25:57;;;;;;;;;;;21.40;39.00;;;;;;500090;237;2297;-43
2022/12/25 13:27:58;;;;;;;;;;;21.40;38.90;;;;;;499822;237;2183;-44
2022/12/25 13:30:00;;;;;;;;;;;21.50;39.00;;;;;;500035;237;2016;-43
2022/12/25 13:32:01;;;;;;;;;;;21.50;39.00;;;;;;499880;237;1871;-43
2022/12/25 13:34:02;;;;;;;;;;;21.40;38.90;;;;;;499941;237;2247;-43
2022/12/25 13:36:04;;;;;;;;;;;21.40;39.00;;;;;;499907;237;2020;-43
2022/12/25 13:38:06;;;;;;;;;;;21.40;39.00;;;;;;499943;237;2038;-43
2022/12/25 13:40:07;;;;;;;;;;;21.40;39.10;;;;;;499949;237;2069;-43